Time;durP1;ratioP1;P1;durP2;ratioP2;P2;SDS_P1;SDS_P2;PMS_P1;PMS_P2;Temp;Humidity;BMP_temperature;BMP_pressure;BME280_temperature;BME280_humidity;BME280_pressure;Samples;Min_cycle;Max_cycle;Signal;HPM_P1;HPM_P2
2021/09/26 00:01:09;;;;;;;15.43;8.73;;;15.10;99.90;;;;;;5061901;28;20112;-69
2021/09/26 00:03:34;;;;;;;13.68;8.50;;;15.10;99.90;;;;;;5061183;28;20378;-69
2021/09/26 00:06:00;;;;;;;14.75;8.75;;;15.10;99.90;;;;;;5055924;28;20025;-69
2021/09/26 00:08:25;;;;;;;16.35;9.13;;;15.10;99.90;;;;;;5052678;28;20048;-69
2021/09/26 00:10:51;;;;;;;11.52;7.80;;;15.00;99.90;;;;;;5050335;28;20032;-68
2021/09/26 00:13:17;;;;;;;11.27;8.05;;;15.00;99.90;;;;;;5061585;28;20055;-69
2021/09/26 00:15:42;;;;;;;13.48;8.07;;;15.00;99.90;;;;;;5066370;28;20463;-69
2021/09/26 00:18:08;;;;;;;12.38;8.52;;;15.00;99.90;;;;;;5061949;28;20425;-69
2021/09/26 00:20:34;;;;;;;14.07;8.15;;;15.00;99.90;;;;;;5062079;28;20114;-69
2021/09/26 00:22:59;;;;;;;12.40;8.10;;;15.00;99.90;;;;;;5054972;28;20361;-68
2021/09/26 00:25:25;;;;;;;12.63;8.70;;;14.90;99.90;;;;;;5061046;28;20368;-69
2021/09/26 00:27:50;;;;;;;12.57;8.20;;;14.90;99.90;;;;;;5060655;28;20043;-69
2021/09/26 00:30:16;;;;;;;12.70;8.05;;;14.90;99.90;;;;;;5061527;28;20044;-69
2021/09/26 00:32:46;;;;;;;15.15;9.18;;;15.00;99.90;;;;;;5062908;28;20029;-69
2021/09/26 00:35:12;;;;;;;11.80;8.15;;;14.90;99.90;;;;;;5061965;28;20108;-69
2021/09/26 00:37:38;;;;;;;11.73;7.93;;;14.90;99.90;;;;;;5063203;28;20017;-68
2021/09/26 00:40:06;;;;;;;15.02;8.80;;;14.90;99.90;;;;;;5057010;28;20029;-69
2021/09/26 00:42:31;;;;;;;12.15;8.05;;;14.90;99.90;;;;;;5056727;28;20064;-68
2021/09/26 00:44:58;;;;;;;14.55;8.32;;;15.00;99.90;;;;;;5059181;28;20085;-68
2021/09/26 00:47:24;;;;;;;14.32;8.55;;;14.90;99.90;;;;;;5056069;28;20029;-69
2021/09/26 00:49:50;;;;;;;11.38;7.68;;;15.00;99.90;;;;;;5059331;28;20043;-69
2021/09/26 00:52:18;;;;;;;13.15;7.78;;;15.00;99.90;;;;;;5061748;28;20044;-69
2021/09/26 00:54:44;;;;;;;14.45;8.35;;;15.00;99.90;;;;;;5058876;28;20037;-69
2021/09/26 00:57:10;;;;;;;13.68;8.55;;;15.00;99.90;;;;;;5054461;28;20070;-69
2021/09/26 00:59:36;;;;;;;14.93;9.20;;;15.10;99.90;;;;;;5061807;28;20076;-69
2021/09/26 01:02:02;;;;;;;12.18;8.30;;;15.10;99.90;;;;;;5059233;28;20130;-69
2021/09/26 01:04:29;;;;;;;15.13;8.98;;;15.10;99.90;;;;;;5064057;28;20041;-69
2021/09/26 01:07:10;;;;;;;14.75;8.88;;;15.20;99.90;;;;;;5060583;28;20132;-69
2021/09/26 01:09:58;;;;;;;13.63;7.97;;;15.20;99.90;;;;;;5065017;28;20032;-69
2021/09/26 01:12:40;;;;;;;12.65;8.25;;;15.20;99.90;;;;;;5062590;28;20395;-69
2021/09/26 01:15:30;;;;;;;14.90;9.07;;;15.30;99.90;;;;;;5057744;28;20028;-69
2021/09/26 01:18:07;;;;;;;12.00;7.82;;;15.20;99.90;;;;;;5060429;28;20106;-69
2021/09/26 01:20:47;;;;;;;16.30;7.50;;;15.20;99.90;;;;;;5055637;28;20028;-68
2021/09/26 01:23:21;;;;;;;14.35;9.18;;;15.30;99.90;;;;;;5062558;28;20043;-69
2021/09/26 01:26:23;;;;;;;13.30;8.82;;;15.30;99.90;;;;;;5062513;28;20040;-68
2021/09/26 01:29:22;;;;;;;13.25;9.00;;;15.30;99.90;;;;;;5058745;28;20020;-69
2021/09/26 01:31:52;;;;;;;16.50;8.60;;;15.40;99.90;;;;;;5057182;28;20131;-68
2021/09/26 01:34:24;;;;;;;14.82;8.93;;;15.40;99.90;;;;;;5064167;28;20043;-69
2021/09/26 01:36:57;;;;;;;16.45;9.27;;;15.40;99.90;;;;;;5062507;28;20412;-68
2021/09/26 01:40:06;;;;;;;15.05;9.27;;;15.40;99.90;;;;;;5059499;28;20033;-69
2021/09/26 01:42:38;;;;;;;13.10;9.45;;;15.40;99.90;;;;;;5046436;28;20672;-69
2021/09/26 01:45:16;;;;;;;15.65;8.88;;;15.40;99.90;;;;;;5059552;28;20048;-69
2021/09/26 01:47:48;;;;;;;12.93;9.35;;;15.40;99.90;;;;;;5050716;28;20162;-69
2021/09/26 01:50:15;;;;;;;14.50;9.68;;;15.40;99.90;;;;;;5064930;28;20031;-69
2021/09/26 01:52:44;;;;;;;13.38;9.15;;;15.40;99.90;;;;;;5063529;28;20142;-69
2021/09/26 01:55:11;;;;;;;15.00;9.82;;;15.40;99.90;;;;;;5060213;28;20058;-69
2021/09/26 01:57:41;;;;;;;15.15;10.38;;;15.40;99.90;;;;;;5062348;28;20049;-69
2021/09/26 02:00:10;;;;;;;18.27;11.10;;;15.40;99.90;;;;;;5060732;28;20051;-69
2021/09/26 02:02:36;;;;;;;16.88;11.20;;;15.40;99.90;;;;;;5067240;28;20021;-68
2021/09/26 02:05:06;;;;;;;18.88;10.05;;;15.40;99.90;;;;;;5062317;28;20663;-69
2021/09/26 02:07:34;;;;;;;19.40;12.02;;;15.50;99.90;;;;;;5061362;28;20036;-69
2021/09/26 02:10:00;;;;;;;21.33;13.30;;;15.40;99.90;;;;;;5054375;28;20032;-68
2021/09/26 02:12:30;;;;;;;18.15;11.52;;;15.50;99.90;;;;;;5057840;28;20070;-69
2021/09/26 02:14:56;;;;;;;19.80;11.13;;;15.50;99.90;;;;;;5057749;28;20122;-69
2021/09/26 02:17:23;;;;;;;19.40;11.68;;;15.50;99.90;;;;;;5061912;28;20098;-69
2021/09/26 02:19:58;;;;;;;19.27;12.48;;;15.50;99.90;;;;;;5062608;28;20016;-69
2021/09/26 02:22:24;;;;;;;19.67;12.18;;;15.50;99.90;;;;;;5052995;28;20028;-69
2021/09/26 02:24:50;;;;;;;20.40;11.88;;;15.50;99.90;;;;;;5062233;28;20029;-69
2021/09/26 02:27:16;;;;;;;20.42;11.27;;;15.50;99.90;;;;;;5059762;28;20036;-69
2021/09/26 02:29:41;;;;;;;22.23;13.48;;;15.50;99.90;;;;;;5064245;28;20367;-69
2021/09/26 02:32:07;;;;;;;20.30;12.20;;;15.50;99.90;;;;;;5062658;28;20479;-69
2021/09/26 02:34:33;;;;;;;18.85;11.57;;;15.50;99.90;;;;;;5059334;28;20597;-69
2021/09/26 02:36:58;;;;;;;20.40;12.30;;;15.50;99.90;;;;;;5063877;28;20059;-69
2021/09/26 02:39:24;;;;;;;22.80;12.48;;;15.50;99.90;;;;;;5056188;28;20030;-69
2021/09/26 02:42:14;;;;;;;17.15;11.27;;;15.50;99.90;;;;;;5057632;28;20024;-70
2021/09/26 02:44:49;;;;;;;19.67;11.63;;;15.50;99.90;;;;;;5061092;28;20028;-69
2021/09/26 02:47:19;;;;;;;20.33;12.00;;;15.50;99.90;;;;;;5056406;28;20035;-69
2021/09/26 02:49:46;;;;;;;20.55;11.88;;;15.50;99.90;;;;;;5058841;28;20107;-69
2021/09/26 02:52:12;;;;;;;17.50;12.55;;;15.50;99.90;;;;;;5051163;28;20036;-69
2021/09/26 02:54:40;;;;;;;18.75;12.32;;;15.50;99.90;;;;;;5059766;28;20036;-69
2021/09/26 02:57:07;;;;;;;21.05;13.10;;;15.50;99.90;;;;;;5058860;28;20020;-69
2021/09/26 02:59:33;;;;;;;19.77;12.73;;;15.50;99.90;;;;;;5060042;28;20546;-69
2021/09/26 03:01:59;;;;;;;21.73;13.00;;;15.60;99.90;;;;;;5064115;28;20082;-69
2021/09/26 03:04:24;;;;;;;20.42;12.23;;;15.50;99.90;;;;;;5060162;28;20024;-69
2021/09/26 03:06:50;;;;;;;22.92;12.20;;;15.60;99.90;;;;;;5059803;28;20028;-69
2021/09/26 03:09:16;;;;;;;19.73;11.95;;;15.60;99.90;;;;;;5063235;28;20025;-68
2021/09/26 03:11:41;;;;;;;19.15;12.30;;;15.60;99.90;;;;;;5065169;28;20094;-69
2021/09/26 03:14:07;;;;;;;21.25;12.38;;;15.60;99.90;;;;;;5063137;28;20058;-68
2021/09/26 03:16:33;;;;;;;21.02;11.98;;;15.60;99.90;;;;;;5064848;28;20699;-69
2021/09/26 03:18:58;;;;;;;20.75;12.60;;;15.60;99.90;;;;;;5059027;28;20033;-68
2021/09/26 03:21:27;;;;;;;21.80;12.98;;;15.60;99.90;;;;;;5059572;28;20033;-69
2021/09/26 03:23:52;;;;;;;20.55;12.52;;;15.60;99.90;;;;;;5061143;28;20024;-69
2021/09/26 03:26:18;;;;;;;21.60;11.65;;;15.70;99.90;;;;;;5062880;28;20067;-69
2021/09/26 03:28:43;;;;;;;21.80;12.63;;;15.70;99.90;;;;;;5058434;28;20030;-69
2021/09/26 03:31:09;;;;;;;21.02;12.25;;;15.70;99.90;;;;;;5056087;28;20021;-69
2021/09/26 03:33:34;;;;;;;24.73;12.02;;;15.70;99.90;;;;;;5060056;28;20548;-69
2021/09/26 03:36:00;;;;;;;20.25;12.30;;;15.70;99.90;;;;;;5056658;28;20028;-69
2021/09/26 03:38:25;;;;;;;19.38;12.18;;;15.70;99.90;;;;;;5054647;28;20033;-68
2021/09/26 03:40:51;;;;;;;19.08;12.30;;;15.70;99.90;;;;;;5058136;28;20048;-69
2021/09/26 03:43:16;;;;;;;18.25;12.00;;;15.70;99.90;;;;;;5056828;28;20029;-69
2021/09/26 03:45:42;;;;;;;18.25;11.95;;;15.70;99.90;;;;;;5061395;28;20024;-69
2021/09/26 03:48:08;;;;;;;17.75;12.50;;;15.70;99.90;;;;;;5061874;28;20025;-69
2021/09/26 03:50:34;;;;;;;20.20;12.57;;;15.70;99.90;;;;;;5060441;28;20028;-68
2021/09/26 03:52:59;;;;;;;18.85;12.27;;;15.70;99.90;;;;;;5063819;28;20052;-69
2021/09/26 03:55:26;;;;;;;22.40;13.05;;;15.80;99.90;;;;;;5058818;28;20048;-69
2021/09/26 03:57:52;;;;;;;20.98;12.85;;;15.80;99.90;;;;;;5054613;28;20067;-69
2021/09/26 04:00:19;;;;;;;19.20;12.35;;;15.80;99.90;;;;;;5057464;28;20478;-69
2021/09/26 04:02:45;;;;;;;28.13;13.93;;;15.80;99.90;;;;;;5063162;28;20027;-69
2021/09/26 04:05:11;;;;;;;21.38;13.93;;;15.80;99.90;;;;;;5063409;28;20044;-69
2021/09/26 04:07:37;;;;;;;21.45;13.13;;;15.80;99.90;;;;;;5066915;28;20025;-69
2021/09/26 04:10:05;;;;;;;23.30;14.10;;;15.80;99.90;;;;;;5057130;28;20660;-68
2021/09/26 04:12:31;;;;;;;20.48;12.82;;;15.80;99.90;;;;;;5073516;28;20562;-69
2021/09/26 04:14:56;;;;;;;19.73;13.00;;;15.80;99.90;;;;;;5060749;28;21466;-69
2021/09/26 04:17:22;;;;;;;23.17;13.40;;;15.80;99.90;;;;;;5059048;28;20020;-69
2021/09/26 04:19:47;;;;;;;22.55;13.02;;;15.80;99.90;;;;;;5064550;28;20660;-69
2021/09/26 04:22:13;;;;;;;19.33;13.00;;;15.80;99.90;;;;;;5060296;28;20020;-68
2021/09/26 04:24:38;;;;;;;20.73;13.40;;;15.80;99.90;;;;;;5062410;28;20107;-69
2021/09/26 04:27:04;;;;;;;25.30;12.52;;;15.80;99.90;;;;;;5066404;28;20046;-69
2021/09/26 04:29:29;;;;;;;21.13;13.07;;;15.90;99.90;;;;;;5056465;28;20037;-69
2021/09/26 04:31:55;;;;;;;19.33;12.32;;;15.90;99.90;;;;;;5057833;28;20029;-69
2021/09/26 04:34:25;;;;;;;20.00;13.02;;;15.90;99.90;;;;;;5062396;28;20027;-69
2021/09/26 04:36:51;;;;;;;21.07;13.07;;;15.90;99.90;;;;;;5060972;28;20789;-69
2021/09/26 04:39:17;;;;;;;21.73;12.82;;;15.90;99.90;;;;;;5060031;28;20036;-69
2021/09/26 04:41:42;;;;;;;24.17;12.60;;;15.80;99.90;;;;;;5063141;28;20533;-68
2021/09/26 04:44:08;;;;;;;17.67;11.63;;;15.80;99.90;;;;;;5059837;28;20028;-69
2021/09/26 04:46:33;;;;;;;21.13;12.20;;;15.80;99.90;;;;;;5057972;28;20036;-68
2021/09/26 04:48:59;;;;;;;18.42;12.30;;;15.80;99.90;;;;;;5066931;28;20041;-68
2021/09/26 04:51:24;;;;;;;17.73;12.20;;;15.80;99.90;;;;;;5068625;28;20055;-69
2021/09/26 04:53:49;;;;;;;21.75;12.20;;;15.80;99.90;;;;;;5073093;28;20029;-68
2021/09/26 04:56:15;;;;;;;23.30;12.23;;;15.80;99.90;;;;;;5065155;28;20040;-69
2021/09/26 04:58:40;;;;;;;18.15;11.98;;;15.80;99.90;;;;;;5058353;28;20446;-69
2021/09/26 05:01:06;;;;;;;19.10;11.93;;;15.80;99.90;;;;;;5059637;28;20025;-68
2021/09/26 05:03:32;;;;;;;19.98;12.50;;;15.80;99.90;;;;;;5062265;28;20122;-68
2021/09/26 05:05:57;;;;;;;16.98;11.32;;;15.80;99.90;;;;;;5066501;28;20020;-68
2021/09/26 05:08:23;;;;;;;21.77;12.68;;;15.80;99.90;;;;;;5065776;28;20068;-68
2021/09/26 05:10:48;;;;;;;19.15;12.43;;;15.80;99.90;;;;;;5063225;28;20120;-68
2021/09/26 05:13:13;;;;;;;21.20;11.43;;;15.80;99.90;;;;;;5058107;28;20352;-68
2021/09/26 05:15:39;;;;;;;20.05;11.63;;;15.90;99.90;;;;;;5064296;28;20016;-68
2021/09/26 05:18:04;;;;;;;15.73;10.93;;;15.90;99.90;;;;;;5066277;28;20107;-68
2021/09/26 05:20:30;;;;;;;16.73;11.10;;;15.90;99.90;;;;;;5062051;28;20031;-68
2021/09/26 05:22:55;;;;;;;18.20;12.13;;;15.90;99.90;;;;;;5062217;28;20036;-68
2021/09/26 05:25:22;;;;;;;20.05;11.80;;;15.90;99.90;;;;;;5063284;28;20020;-69
2021/09/26 05:27:48;;;;;;;18.17;11.05;;;15.90;99.90;;;;;;5063708;28;20426;-68
2021/09/26 05:30:13;;;;;;;17.45;11.13;;;16.00;99.90;;;;;;5063323;28;20031;-68
2021/09/26 05:32:39;;;;;;;21.70;11.48;;;16.00;99.90;;;;;;5061055;28;20062;-69
2021/09/26 05:35:06;;;;;;;21.10;10.77;;;16.00;99.90;;;;;;5064654;28;20031;-68
2021/09/26 05:37:31;;;;;;;18.20;11.65;;;16.00;99.90;;;;;;5065423;28;20028;-69
2021/09/26 05:39:56;;;;;;;17.60;11.23;;;16.00;99.90;;;;;;5063614;28;20127;-68
2021/09/26 05:42:22;;;;;;;18.77;11.60;;;16.00;99.90;;;;;;5066231;28;20036;-69
2021/09/26 05:44:48;;;;;;;18.00;11.77;;;16.00;99.90;;;;;;5058094;28;20380;-69
2021/09/26 05:47:14;;;;;;;14.80;10.73;;;16.10;99.90;;;;;;5056972;28;20021;-68
2021/09/26 05:49:41;;;;;;;20.17;11.75;;;16.10;99.90;;;;;;5060917;28;20037;-69
2021/09/26 05:52:08;;;;;;;15.68;10.90;;;16.10;99.90;;;;;;5065457;28;20051;-68
2021/09/26 05:54:35;;;;;;;17.60;11.18;;;16.10;99.90;;;;;;5063397;28;20718;-68
2021/09/26 05:57:01;;;;;;;13.60;9.68;;;16.10;99.90;;;;;;5063857;28;20036;-68
2021/09/26 05:59:27;;;;;;;20.95;11.43;;;16.20;99.90;;;;;;5063923;28;20503;-68
2021/09/26 06:01:53;;;;;;;18.30;11.88;;;16.20;99.90;;;;;;5058373;28;20025;-68
2021/09/26 06:04:18;;;;;;;17.23;11.10;;;16.20;99.90;;;;;;5060997;28;20181;-69
2021/09/26 06:06:44;;;;;;;17.35;11.23;;;16.20;99.90;;;;;;5064176;28;20421;-69
2021/09/26 06:09:09;;;;;;;18.77;10.00;;;16.30;99.90;;;;;;5060276;28;20087;-68
2021/09/26 06:11:35;;;;;;;18.85;11.10;;;16.30;99.90;;;;;;5058844;28;20063;-68
2021/09/26 06:14:01;;;;;;;16.48;10.98;;;16.40;99.90;;;;;;5062929;28;20024;-68
2021/09/26 06:16:27;;;;;;;15.98;10.55;;;16.40;99.90;;;;;;5059711;28;20457;-68
2021/09/26 06:18:52;;;;;;;17.88;11.35;;;16.50;99.90;;;;;;5063599;28;20032;-69
2021/09/26 06:21:18;;;;;;;20.10;11.82;;;16.50;99.90;;;;;;5064190;28;20033;-68
2021/09/26 06:23:43;;;;;;;19.67;11.20;;;16.50;99.90;;;;;;5063147;28;20032;-68
2021/09/26 06:26:09;;;;;;;18.23;11.40;;;16.50;99.90;;;;;;5068400;28;20028;-68
2021/09/26 06:28:34;;;;;;;14.80;9.88;;;16.60;99.90;;;;;;5063499;28;20510;-69
2021/09/26 06:31:00;;;;;;;15.30;9.93;;;16.60;99.90;;;;;;5062139;28;20037;-68
2021/09/26 06:33:26;;;;;;;19.90;12.18;;;16.60;99.90;;;;;;5059802;28;20028;-69
2021/09/26 06:35:52;;;;;;;16.65;11.15;;;16.70;99.90;;;;;;5057171;28;20513;-69
2021/09/26 06:38:17;;;;;;;14.88;9.90;;;16.70;99.90;;;;;;5061569;28;20063;-68
2021/09/26 06:40:43;;;;;;;16.65;10.07;;;16.70;99.90;;;;;;5061386;28;20024;-69
2021/09/26 06:43:09;;;;;;;16.23;10.80;;;16.70;99.90;;;;;;5061388;28;20429;-68
2021/09/26 06:45:34;;;;;;;15.48;10.35;;;16.60;99.90;;;;;;5061018;28;20074;-68
2021/09/26 06:48:00;;;;;;;18.38;11.13;;;16.70;99.90;;;;;;5062064;28;21085;-68
2021/09/26 06:50:27;;;;;;;14.07;9.88;;;16.60;99.90;;;;;;5064872;28;20025;-67
2021/09/26 06:52:52;;;;;;;15.70;10.07;;;16.60;99.90;;;;;;5059344;28;20024;-67
2021/09/26 06:55:18;;;;;;;15.70;10.25;;;16.60;99.90;;;;;;5057063;28;20032;-67
2021/09/26 06:57:44;;;;;;;14.13;9.70;;;16.60;99.90;;;;;;5062065;28;20084;-68
2021/09/26 07:00:10;;;;;;;16.08;9.73;;;16.60;99.90;;;;;;5061922;28;20387;-68
2021/09/26 07:02:35;;;;;;;20.75;9.80;;;16.70;99.90;;;;;;5061561;28;20502;-68
2021/09/26 07:05:01;;;;;;;15.63;9.68;;;16.70;99.90;;;;;;5058318;28;20024;-68
2021/09/26 07:07:26;;;;;;;18.35;10.02;;;16.70;99.90;;;;;;5063883;28;20033;-68
2021/09/26 07:09:52;;;;;;;15.90;9.23;;;16.80;99.90;;;;;;5056788;28;20024;-67
2021/09/26 07:12:19;;;;;;;15.68;9.38;;;16.80;99.90;;;;;;5063408;28;20638;-68
2021/09/26 07:14:45;;;;;;;15.32;9.20;;;16.80;99.90;;;;;;5058540;28;21011;-68
2021/09/26 07:17:12;;;;;;;12.68;8.85;;;16.90;99.90;;;;;;5060647;28;20028;-68
2021/09/26 07:19:37;;;;;;;14.30;8.80;;;16.90;99.90;;;;;;5066401;28;20070;-68
2021/09/26 07:22:04;;;;;;;13.90;8.50;;;17.00;99.90;;;;;;5060824;28;20036;-67
2021/09/26 07:24:29;;;;;;;12.35;8.15;;;17.00;99.90;;;;;;5054379;28;20056;-66
2021/09/26 07:26:55;;;;;;;11.73;7.80;;;17.10;99.90;;;;;;5059033;28;20048;-68
2021/09/26 07:29:20;;;;;;;12.13;7.95;;;17.10;99.90;;;;;;5062749;28;20107;-71
2021/09/26 07:31:46;;;;;;;12.32;7.72;;;17.20;99.90;;;;;;5062801;28;20024;-68
2021/09/26 07:34:12;;;;;;;14.85;7.30;;;17.20;99.90;;;;;;5067198;28;20024;-67
2021/09/26 07:36:37;;;;;;;13.40;7.50;;;17.30;99.90;;;;;;5065668;28;20077;-67
2021/09/26 07:39:04;;;;;;;12.27;7.30;;;17.30;99.90;;;;;;5058292;28;20021;-68
2021/09/26 07:41:30;;;;;;;12.23;7.10;;;17.40;99.90;;;;;;5044245;28;20029;-68
2021/09/26 07:43:55;;;;;;;11.20;7.35;;;17.50;99.90;;;;;;5058433;28;20024;-67
2021/09/26 07:46:22;;;;;;;11.32;6.93;;;17.60;99.90;;;;;;5066467;28;20366;-68
2021/09/26 07:48:48;;;;;;;8.95;6.20;;;17.60;99.90;;;;;;5058224;28;20105;-67
2021/09/26 07:51:17;;;;;;;10.48;6.75;;;17.60;99.90;;;;;;5062390;28;20518;-68
2021/09/26 07:53:42;;;;;;;10.30;7.28;;;17.70;99.90;;;;;;5060580;28;20032;-69
2021/09/26 07:56:08;;;;;;;8.60;6.07;;;17.80;99.90;;;;;;5058111;28;20028;-69
2021/09/26 07:58:34;;;;;;;10.10;6.30;;;17.90;99.90;;;;;;5055718;28;20044;-68
2021/09/26 08:01:01;;;;;;;11.05;6.45;;;17.90;99.90;;;;;;5044577;28;20402;-69
2021/09/26 08:03:27;;;;;;;9.52;6.60;;;18.00;99.90;;;;;;5061570;28;20109;-68
2021/09/26 08:05:53;;;;;;;7.40;5.50;;;18.00;99.90;;;;;;5059530;28;20494;-68
2021/09/26 08:08:18;;;;;;;11.52;6.57;;;18.10;99.90;;;;;;5063446;28;20025;-69
2021/09/26 08:10:44;;;;;;;9.90;6.43;;;18.20;99.90;;;;;;5052345;28;20032;-68
2021/09/26 08:13:09;;;;;;;11.18;6.05;;;18.30;99.90;;;;;;5043942;28;20024;-68
2021/09/26 08:15:35;;;;;;;13.52;5.80;;;18.30;99.90;;;;;;5068757;28;20056;-69
2021/09/26 08:18:00;;;;;;;7.43;5.70;;;18.40;99.90;;;;;;5061806;28;20127;-68
2021/09/26 08:20:26;;;;;;;7.97;5.32;;;18.50;99.90;;;;;;5077944;28;20036;-68
2021/09/26 08:22:54;;;;;;;8.85;5.40;;;18.50;99.90;;;;;;5057330;28;20039;-69
2021/09/26 08:25:23;;;;;;;7.10;5.50;;;18.50;99.90;;;;;;5066227;28;20032;-69
2021/09/26 08:27:50;;;;;;;8.13;5.80;;;18.60;99.90;;;;;;5063310;28;20021;-68
2021/09/26 08:30:18;;;;;;;8.75;5.90;;;18.70;99.90;;;;;;5055944;28;20033;-70
2021/09/26 08:32:44;;;;;;;7.35;5.32;;;18.80;99.90;;;;;;5066905;28;20032;-68
2021/09/26 08:35:10;;;;;;;7.53;5.20;;;18.90;99.90;;;;;;5072762;28;20111;-69
2021/09/26 08:37:35;;;;;;;7.63;5.57;;;19.00;99.90;;;;;;5068989;28;20147;-69
2021/09/26 08:40:02;;;;;;;7.43;4.57;;;19.00;99.90;;;;;;5065220;28;20551;-70
2021/09/26 08:42:28;;;;;;;6.03;4.40;;;19.10;99.90;;;;;;5061136;28;20016;-70
2021/09/26 08:44:54;;;;;;;5.45;4.43;;;19.20;99.90;;;;;;5057244;28;20095;-70
2021/09/26 08:47:20;;;;;;;6.30;4.40;;;19.30;99.90;;;;;;5067622;28;20044;-70
2021/09/26 08:49:47;;;;;;;6.88;4.53;;;19.40;99.90;;;;;;5059264;28;20017;-70
2021/09/26 08:52:12;;;;;;;9.10;4.70;;;19.50;99.90;;;;;;5066073;28;20050;-70
2021/09/26 08:54:39;;;;;;;5.97;4.35;;;19.50;99.90;;;;;;5057148;28;20033;-70
2021/09/26 08:57:05;;;;;;;6.53;4.53;;;19.60;99.90;;;;;;5052751;28;20115;-70
2021/09/26 08:59:31;;;;;;;5.25;3.95;;;19.60;99.90;;;;;;5061136;28;20127;-69
2021/09/26 09:01:57;;;;;;;6.93;4.57;;;19.60;99.90;;;;;;5052076;28;20038;-70
2021/09/26 09:04:40;;;;;;;7.03;4.70;;;19.70;99.90;;;;;;5067419;28;20387;-74
2021/09/26 09:07:08;;;;;;;10.48;4.65;;;19.80;99.90;;;;;;5054913;28;20090;-74
2021/09/26 09:09:52;;;;;;;7.05;4.88;;;19.90;99.90;;;;;;5056584;28;20027;-74
2021/09/26 09:12:23;;;;;;;5.72;4.22;;;19.90;99.90;;;;;;5057004;28;20207;-74
2021/09/26 09:14:52;;;;;;;8.27;4.68;;;20.00;99.90;;;;;;5054614;28;20028;-74
2021/09/26 09:17:44;;;;;;;7.60;3.83;;;20.00;99.90;;;;;;5054086;28;20083;-74
2021/09/26 09:20:23;;;;;;;6.47;4.32;;;20.20;99.90;;;;;;5049480;28;20043;-74
2021/09/26 09:22:52;;;;;;;6.68;3.78;;;20.20;99.90;;;;;;5055988;28;20032;-74
2021/09/26 09:25:36;;;;;;;6.90;4.40;;;20.30;99.90;;;;;;5056936;28;20035;-73
2021/09/26 09:28:27;;;;;;;5.68;4.10;;;20.40;99.90;;;;;;5055095;28;20387;-74
2021/09/26 09:31:01;;;;;;;6.65;4.15;;;20.40;99.90;;;;;;5044821;28;20128;-74
2021/09/26 09:33:44;;;;;;;6.22;4.32;;;20.40;99.90;;;;;;5056528;28;20033;-74
2021/09/26 09:36:20;;;;;;;6.45;4.25;;;20.60;99.90;;;;;;5057163;28;20127;-74
2021/09/26 09:38:48;;;;;;;6.22;4.47;;;20.60;99.90;;;;;;5060229;28;20542;-74
2021/09/26 09:41:34;;;;;;;7.35;4.50;;;20.60;99.90;;;;;;5057110;28;20071;-74
2021/09/26 09:44:00;;;;;;;7.00;4.70;;;20.80;99.90;;;;;;5053016;28;20060;-74
2021/09/26 09:46:35;;;;;;;5.85;4.35;;;20.80;99.90;;;;;;5055721;28;20025;-74
2021/09/26 09:49:34;;;;;;;7.32;4.05;;;20.90;99.90;;;;;;5054672;28;20032;-75
2021/09/26 09:52:05;;;;;;;4.22;3.83;;;20.90;99.90;;;;;;5054459;28;20056;-75
2021/09/26 09:54:40;;;;;;;;;;;21.00;99.90;;;;;;5058881;28;20028;-74
2021/09/26 09:57:51;;;;;;;5.10;4.32;;;21.20;99.90;;;;;;5054248;28;20497;-76
2021/09/26 10:00:19;;;;;;;6.50;3.97;;;21.30;99.90;;;;;;5055534;28;20059;-76
2021/09/26 10:02:45;;;;;;;6.07;3.67;;;21.50;99.90;;;;;;5054248;28;20151;-76
2021/09/26 10:05:35;;;;;;;6.32;3.92;;;21.60;99.90;;;;;;5050225;28;20610;-70
2021/09/26 10:08:03;;;;;;;6.90;4.18;;;21.70;99.90;;;;;;5051680;28;20110;-69
2021/09/26 10:10:31;;;;;;;5.20;4.25;;;21.70;99.90;;;;;;5055190;28;20086;-70
2021/09/26 10:13:15;;;;;;;7.68;4.20;;;21.80;99.90;;;;;;5056205;28;20463;-70
2021/09/26 10:15:41;;;;;;;8.40;3.90;;;22.00;99.80;;;;;;5055326;28;20082;-70
2021/09/26 10:18:07;;;;;;;4.78;3.33;;;22.10;99.90;;;;;;5050776;28;20718;-69
2021/09/26 10:20:35;;;;;;;4.60;3.33;;;22.20;97.40;;;;;;5054160;28;20029;-70
2021/09/26 10:23:01;;;;;;;6.68;3.55;;;22.30;96.20;;;;;;5051246;28;20503;-71
2021/09/26 10:25:28;;;;;;;5.72;3.80;;;22.20;95.40;;;;;;5057203;28;20052;-71
2021/09/26 10:27:54;;;;;;;5.28;3.17;;;22.10;95.40;;;;;;5056147;28;20031;-70
2021/09/26 10:30:21;;;;;;;4.63;3.75;;;22.10;96.40;;;;;;5054022;28;20056;-70
2021/09/26 10:32:48;;;;;;;4.35;3.22;;;22.10;96.00;;;;;;5054492;28;20029;-69
2021/09/26 10:35:18;;;;;;;4.50;3.60;;;22.20;96.10;;;;;;5056792;28;20095;-70
2021/09/26 10:37:44;;;;;;;6.45;3.70;;;22.20;95.50;;;;;;5052579;28;20028;-70
2021/09/26 10:40:10;;;;;;;5.57;3.50;;;22.30;96.70;;;;;;5056519;28;20033;-69
2021/09/26 10:42:37;;;;;;;6.75;3.70;;;22.40;96.50;;;;;;5058675;28;20071;-70
2021/09/26 10:45:05;;;;;;;4.18;3.45;;;22.50;95.10;;;;;;5056628;28;20238;-69
2021/09/26 10:47:34;;;;;;;3.70;3.10;;;22.70;94.60;;;;;;5056254;28;20097;-69
2021/09/26 10:50:00;;;;;;;4.50;3.40;;;22.90;92.90;;;;;;5061793;28;20036;-73
2021/09/26 10:52:38;;;;;;;4.63;3.45;;;23.10;92.50;;;;;;5062914;28;20090;-70
2021/09/26 10:55:21;;;;;;;5.88;3.38;;;23.30;93.20;;;;;;5057332;28;20077;-71
2021/09/26 10:58:06;;;;;;;4.57;3.80;;;23.60;90.40;;;;;;5058822;28;20048;-71
2021/09/26 11:00:43;;;;;;;4.90;3.10;;;23.90;90.40;;;;;;5044678;28;20059;-69
2021/09/26 11:03:17;;;;;;;4.18;3.10;;;23.90;90.20;;;;;;5056817;28;20028;-70
2021/09/26 11:05:51;;;;;;;4.95;3.40;;;24.00;88.20;;;;;;5062452;28;20051;-71
2021/09/26 11:08:26;;;;;;;3.30;2.80;;;24.10;89.00;;;;;;5048691;28;20035;-70
2021/09/26 11:10:58;;;;;;;4.20;3.28;;;24.30;90.00;;;;;;5055238;28;20036;-71
2021/09/26 11:13:38;;;;;;;5.20;3.13;;;24.50;85.90;;;;;;5062579;28;20078;-71
2021/09/26 11:16:18;;;;;;;6.22;3.20;;;24.60;84.90;;;;;;5063797;28;20108;-70
2021/09/26 11:18:56;;;;;;;3.22;2.90;;;24.70;82.80;;;;;;5043768;28;20025;-71
2021/09/26 11:21:46;;;;;;;4.22;3.00;;;24.90;81.90;;;;;;5058720;28;20028;-70
2021/09/26 11:24:18;;;;;;;5.72;2.95;;;25.10;80.50;;;;;;5053480;28;20082;-72
2021/09/26 11:27:08;;;;;;;3.40;2.88;;;25.20;79.70;;;;;;5058510;28;20021;-71
2021/09/26 11:29:41;;;;;;;3.35;2.88;;;25.50;79.60;;;;;;5036301;28;20028;-72
2021/09/26 11:32:18;;;;;;;3.22;2.90;;;25.80;77.50;;;;;;5063515;28;20657;-72
2021/09/26 11:34:47;;;;;;;3.75;2.80;;;26.10;78.10;;;;;;5048994;28;20056;-71
2021/09/26 11:37:13;;;;;;;3.53;2.83;;;26.40;74.20;;;;;;5054181;28;20044;-72
2021/09/26 11:39:50;;;;;;;3.50;3.20;;;26.50;69.90;;;;;;5050871;28;20425;-79
2021/09/26 11:42:40;;;;;;;3.70;3.10;;;26.70;70.50;;;;;;5056042;28;20468;-75
2021/09/26 11:45:11;;;;;;;5.15;3.17;;;26.90;67.50;;;;;;5053959;28;20059;-74
2021/09/26 11:47:37;;;;;;;4.38;2.97;;;27.10;67.10;;;;;;5054177;28;20027;-80
2021/09/26 11:50:09;;;;;;;3.25;2.90;;;27.30;67.00;;;;;;5054939;28;20032;-74
2021/09/26 11:52:44;;;;;;;8.77;2.92;;;27.40;67.80;;;;;;5053482;28;20025;-74
2021/09/26 11:55:11;;;;;;;3.67;3.15;;;27.60;66.10;;;;;;5047189;28;20040;-74
2021/09/26 11:57:37;;;;;;;15.25;6.80;;;27.80;64.70;;;;;;5053537;28;20044;-74
2021/09/26 12:00:05;;;;;;;12.70;7.32;;;27.90;63.40;;;;;;5049310;28;20511;-75
2021/09/26 12:02:34;;;;;;;17.83;12.95;;;28.10;63.10;;;;;;5053127;28;20033;-75
2021/09/26 12:05:00;;;;;;;24.25;15.32;;;28.20;63.90;;;;;;5059263;28;20067;-75
2021/09/26 12:07:30;;;;;;;19.77;11.27;;;28.40;60.60;;;;;;5051794;28;20050;-78
2021/09/26 12:09:55;;;;;;;4.85;3.17;;;28.60;62.30;;;;;;5049739;28;20024;-76
2021/09/26 12:12:27;;;;;;;5.30;3.90;;;28.80;60.80;;;;;;5050025;28;20025;-72
2021/09/26 12:15:05;;;;;;;12.35;8.57;;;29.00;61.70;;;;;;5051759;28;20120;-71
2021/09/26 12:17:32;;;;;;;87.07;59.35;;;29.00;62.40;;;;;;5045351;28;20048;-72
2021/09/26 12:20:10;;;;;;;16.13;10.70;;;28.90;60.80;;;;;;5052900;28;20028;-70
2021/09/26 12:22:40;;;;;;;20.73;13.30;;;28.90;60.20;;;;;;5060647;28;20513;-72
2021/09/26 12:25:13;;;;;;;38.05;23.73;;;28.90;59.70;;;;;;5053989;28;20435;-71
2021/09/26 12:27:53;;;;;;;173.30;92.72;;;28.80;59.90;;;;;;5050464;28;20028;-70
2021/09/26 12:30:23;;;;;;;44.38;29.77;;;28.60;62.60;;;;;;5040376;28;20034;-71
2021/09/26 12:32:58;;;;;;;60.92;32.65;;;28.50;58.80;;;;;;5061167;28;20083;-70
2021/09/26 12:35:40;;;;;;;32.42;17.98;;;28.50;59.90;;;;;;5061779;28;20033;-73
2021/09/26 12:38:14;;;;;;;37.97;24.35;;;28.40;60.50;;;;;;5057303;28;20222;-69
2021/09/26 12:41:08;;;;;;;73.72;45.67;;;28.10;63.00;;;;;;5049537;28;20122;-69
2021/09/26 12:43:38;;;;;;;56.15;34.53;;;28.10;60.40;;;;;;5057063;28;20032;-69
2021/09/26 12:46:08;;;;;;;53.92;34.05;;;27.90;63.40;;;;;;5052451;28;20322;-69